createdAt,value
2023-04-14T00:00:06.585Z,4.90
2023-04-14T00:00:29.451Z,4.90
2023-04-14T00:00:52.215Z,4.90
2023-04-14T00:01:16.510Z,4.90
2023-04-14T00:01:42.508Z,4.90
2023-04-14T00:02:05.676Z,4.90
2023-04-14T00:02:31.149Z,4.90
2023-04-14T00:02:56.494Z,4.90
2023-04-14T00:03:19.863Z,4.90
2023-04-14T00:03:43.239Z,4.90
2023-04-14T00:04:06.999Z,4.90
2023-04-14T00:04:30.058Z,4.90
2023-04-14T00:04:55.507Z,4.90
2023-04-14T00:05:18.523Z,4.90
2023-04-14T00:05:41.390Z,4.90
2023-04-14T00:06:06.598Z,4.90
2023-04-14T00:06:31.795Z,4.90
2023-04-14T00:06:57.319Z,5.00
2023-04-14T00:07:20.172Z,5.00
2023-04-14T00:07:43.381Z,5.00
2023-04-14T00:08:06.503Z,5.00
2023-04-14T00:08:29.288Z,5.00
2023-04-14T00:08:52.070Z,4.90
2023-04-14T00:09:14.879Z,4.90
2023-04-14T00:09:37.864Z,4.90
2023-04-14T00:10:00.783Z,4.90
2023-04-14T00:10:23.714Z,5.00
2023-04-14T00:10:46.444Z,5.00
2023-04-14T00:11:09.285Z,4.90
2023-04-14T00:11:32.793Z,4.90
2023-04-14T00:11:56.702Z,4.90
2023-04-14T00:12:19.550Z,4.90
2023-04-14T00:12:42.775Z,4.90
2023-04-14T00:13:05.638Z,5.00
2023-04-14T00:13:30.758Z,4.90
2023-04-14T00:13:56.673Z,4.90
2023-04-14T00:14:19.459Z,4.90
2023-04-14T00:14:43.431Z,4.90
2023-04-14T00:15:08.881Z,4.90
2023-04-14T00:15:31.764Z,4.90
2023-04-14T00:15:55.059Z,4.90
2023-04-14T00:16:17.768Z,4.90
2023-04-14T00:16:40.898Z,4.80
2023-04-14T00:17:03.709Z,4.80
2023-04-14T00:17:27.007Z,4.80
2023-04-14T00:17:50.972Z,4.80
2023-04-14T00:18:13.833Z,4.80
2023-04-14T00:18:36.667Z,4.80
2023-04-14T00:19:02.681Z,4.80
2023-04-14T00:19:25.796Z,4.90
2023-04-14T00:19:48.579Z,4.90
2023-04-14T00:20:11.709Z,4.80
2023-04-14T00:20:34.417Z,4.90
2023-04-14T00:20:57.277Z,4.80
2023-04-14T00:21:20.098Z,4.80
2023-04-14T00:21:42.796Z,4.80
2023-04-14T00:22:05.953Z,4.80
2023-04-14T00:22:28.837Z,4.80
2023-04-14T00:22:52.087Z,4.80
2023-04-14T00:23:14.869Z,4.80
2023-04-14T00:23:37.540Z,4.80
2023-04-14T00:24:02.773Z,4.80
2023-04-14T00:24:25.550Z,4.80
2023-04-14T00:24:50.841Z,4.60
2023-04-14T00:25:13.674Z,4.80
2023-04-14T00:25:38.897Z,4.80
2023-04-14T00:26:01.860Z,4.90
2023-04-14T00:26:24.696Z,4.80
2023-04-14T00:26:47.528Z,4.90
2023-04-14T00:27:10.638Z,4.80
2023-04-14T00:27:33.489Z,4.90
2023-04-14T00:27:56.253Z,4.80
2023-04-14T00:28:18.965Z,4.80
2023-04-14T00:28:41.816Z,4.80
2023-04-14T00:29:06.520Z,4.80
2023-04-14T00:29:29.227Z,4.80
2023-04-14T00:29:51.927Z,4.80
2023-04-14T00:30:15.580Z,4.80
2023-04-14T00:30:38.376Z,4.90
2023-04-14T00:31:01.129Z,4.80
2023-04-14T00:31:24.051Z,4.80
2023-04-14T00:31:47.405Z,4.90
2023-04-14T00:32:12.614Z,4.80
2023-04-14T00:32:35.489Z,4.90
2023-04-14T00:32:58.444Z,4.90
2023-04-14T00:33:21.224Z,4.80
2023-04-14T00:33:43.958Z,4.80
2023-04-14T00:34:06.826Z,4.90
2023-04-14T00:34:29.784Z,4.90
2023-04-14T00:34:52.632Z,4.90
2023-04-14T00:35:15.675Z,4.90
2023-04-14T00:35:38.557Z,4.90
2023-04-14T00:36:01.388Z,4.90
2023-04-14T00:36:24.236Z,4.90
2023-04-14T00:36:47.035Z,4.90
2023-04-14T00:37:09.858Z,4.90
2023-04-14T00:37:32.634Z,4.90
2023-04-14T00:37:57.368Z,4.90
2023-04-14T00:38:20.712Z,4.90
2023-04-14T00:38:43.487Z,4.90
2023-04-14T00:39:06.635Z,4.90
2023-04-14T00:39:29.458Z,4.90
2023-04-14T00:39:52.163Z,4.90
2023-04-14T00:40:14.932Z,4.90
2023-04-14T00:40:40.193Z,5.00
2023-04-14T00:41:03.172Z,5.00
2023-04-14T00:41:25.956Z,5.00
2023-04-14T00:41:48.664Z,5.00
2023-04-14T00:42:12.043Z,5.00
2023-04-14T00:42:37.517Z,5.00
2023-04-14T00:43:00.429Z,5.00
2023-04-14T00:43:23.380Z,4.90
2023-04-14T00:43:46.198Z,5.00
2023-04-14T00:44:10.753Z,4.90
2023-04-14T00:44:33.593Z,5.00
2023-04-14T00:44:56.384Z,4.90
2023-04-14T00:45:19.195Z,4.90
2023-04-14T00:45:45.216Z,4.90
2023-04-14T00:46:08.131Z,4.90
2023-04-14T00:46:31.371Z,4.90
2023-04-14T00:46:54.214Z,4.90
2023-04-14T00:47:17.784Z,5.00
2023-04-14T00:47:42.311Z,4.90
2023-04-14T00:48:05.394Z,5.00
2023-04-14T00:48:28.288Z,5.00
2023-04-14T00:48:51.378Z,4.90
2023-04-14T00:49:14.106Z,4.90
2023-04-14T00:49:39.109Z,4.90
2023-04-14T00:50:01.970Z,5.00
2023-04-14T00:50:24.883Z,4.90
2023-04-14T00:50:47.657Z,4.90
2023-04-14T00:51:11.944Z,4.90
2023-04-14T00:51:34.892Z,4.90
2023-04-14T00:51:57.941Z,5.00
2023-04-14T00:52:21.944Z,5.00
2023-04-14T00:52:44.975Z,5.00
2023-04-14T00:53:07.701Z,5.00
2023-04-14T00:53:31.405Z,4.90
2023-04-14T00:53:54.339Z,5.00
2023-04-14T00:54:19.078Z,4.90
2023-04-14T00:54:41.790Z,5.00
2023-04-14T00:55:05.793Z,5.00
2023-04-14T00:55:28.644Z,5.00
2023-04-14T00:55:51.885Z,5.00
2023-04-14T00:56:14.665Z,5.10
2023-04-14T00:56:37.434Z,5.00
2023-04-14T00:57:00.782Z,5.00
2023-04-14T00:57:23.648Z,5.00
2023-04-14T00:57:46.437Z,5.00
2023-04-14T00:58:09.373Z,5.00
2023-04-14T00:58:32.224Z,5.00
2023-04-14T00:58:55.023Z,5.00
2023-04-14T00:59:19.479Z,5.00
2023-04-14T00:59:42.308Z,5.00
2023-04-14T01:00:06.583Z,5.00
2023-04-14T01:00:29.291Z,5.00
2023-04-14T01:00:55.649Z,5.00
2023-04-14T01:01:18.612Z,4.90
2023-04-14T01:01:41.685Z,4.90
2023-04-14T01:02:04.583Z,4.90
2023-04-14T01:02:27.629Z,4.90
2023-04-14T01:02:51.016Z,4.90
2023-04-14T01:03:14.698Z,4.90
2023-04-14T01:03:38.298Z,4.90
2023-04-14T01:04:01.969Z,4.90
2023-04-14T01:04:29.263Z,4.90
2023-04-14T01:04:59.851Z,4.90
2023-04-14T01:05:22.987Z,4.90
2023-04-14T01:05:45.984Z,4.90
2023-04-14T01:06:08.704Z,4.90
2023-04-14T01:06:32.513Z,4.90
2023-04-14T01:06:55.378Z,4.90
2023-04-14T01:07:18.605Z,4.80
2023-04-14T01:07:41.498Z,4.80
2023-04-14T01:08:04.275Z,4.80
2023-04-14T01:08:27.442Z,4.80
2023-04-14T01:08:50.736Z,4.80
2023-04-14T01:09:13.667Z,4.80
2023-04-14T01:09:38.689Z,4.80
2023-04-14T01:10:01.457Z,4.80
2023-04-14T01:10:25.196Z,4.80
2023-04-14T01:10:51.541Z,4.70
2023-04-14T01:11:17.171Z,4.80
2023-04-14T01:11:46.236Z,4.80
2023-04-14T01:12:14.399Z,4.70
2023-04-14T01:12:52.189Z,4.70
2023-04-14T01:13:21.366Z,4.70
2023-04-14T01:13:48.519Z,4.70
2023-04-14T01:14:14.288Z,4.70
2023-04-14T01:14:43.585Z,4.70
2023-04-14T01:15:12.584Z,4.80
2023-04-14T01:15:39.048Z,4.70
2023-04-14T01:16:03.560Z,4.70
2023-04-14T01:16:30.753Z,4.70
2023-04-14T01:16:55.734Z,4.70
2023-04-14T01:17:22.944Z,4.70
2023-04-14T01:17:49.985Z,4.80
2023-04-14T01:18:16.532Z,4.70
2023-04-14T01:18:45.193Z,4.70
2023-04-14T01:19:17.464Z,4.70
2023-04-14T01:19:51.573Z,4.70
2023-04-14T01:20:19.313Z,4.70
2023-04-14T01:20:42.918Z,4.70
2023-04-14T01:21:08.409Z,4.70
2023-04-14T01:21:35.028Z,4.70
2023-04-14T01:22:00.083Z,4.60
2023-04-14T01:22:23.008Z,4.70
2023-04-14T01:22:49.393Z,4.70
2023-04-14T01:23:14.677Z,4.70
2023-04-14T01:23:42.963Z,4.70
2023-04-14T01:24:20.011Z,4.70
2023-04-14T01:25:00.483Z,4.70
2023-04-14T01:25:40.532Z,4.70
2023-04-14T01:26:17.737Z,4.70
2023-04-14T01:26:40.886Z,4.70
2023-04-14T01:27:07.290Z,4.70
2023-04-14T01:27:36.647Z,4.70
2023-04-14T01:28:09.843Z,4.70
2023-04-14T01:28:45.781Z,4.70
2023-04-14T01:29:23.697Z,4.70
2023-04-14T01:30:32.991Z,4.70
2023-04-14T01:31:06.503Z,4.50
2023-04-14T01:31:31.683Z,4.70
2023-04-14T01:31:55.807Z,4.70
2023-04-14T01:32:20.258Z,4.70
2023-04-14T01:32:45.972Z,4.70
2023-04-14T01:33:08.793Z,4.70
2023-04-14T01:33:32.211Z,4.70
2023-04-14T01:34:00.447Z,4.70
2023-04-14T01:34:25.655Z,4.70
2023-04-14T01:34:51.379Z,4.70
2023-04-14T01:35:17.694Z,4.70
2023-04-14T01:35:42.771Z,4.70
2023-04-14T01:36:08.937Z,4.70
2023-04-14T01:36:42.869Z,4.70
2023-04-14T01:37:07.713Z,4.70
2023-04-14T01:37:34.475Z,4.70
2023-04-14T01:38:02.877Z,4.70
2023-04-14T01:38:27.774Z,4.70
2023-04-14T01:38:50.774Z,4.70
2023-04-14T01:39:16.365Z,4.70
2023-04-14T01:39:43.385Z,4.70
2023-04-14T01:40:11.720Z,4.70
2023-04-14T01:40:34.434Z,4.70
2023-04-14T01:41:01.144Z,4.70
2023-04-14T01:41:24.030Z,4.70
2023-04-14T01:41:48.712Z,4.70
2023-04-14T01:42:13.459Z,4.70
2023-04-14T01:42:37.078Z,4.70
2023-04-14T01:43:05.361Z,4.70
2023-04-14T01:43:29.018Z,4.70
2023-04-14T01:43:52.654Z,4.70
2023-04-14T01:44:17.618Z,4.80
2023-04-14T01:44:41.161Z,4.80
2023-04-14T01:45:07.275Z,4.80
2023-04-14T01:45:36.570Z,4.80
2023-04-14T01:46:01.367Z,4.90
2023-04-14T01:46:24.262Z,4.80
2023-04-14T01:46:51.044Z,4.80
2023-04-14T01:47:15.776Z,4.80
2023-04-14T01:47:38.548Z,4.80
2023-04-14T01:48:01.334Z,4.80
2023-04-14T01:48:24.792Z,4.80
2023-04-14T01:48:51.186Z,4.80
2023-04-14T01:49:14.073Z,4.80
2023-04-14T01:49:38.962Z,4.80
2023-04-14T01:50:01.947Z,4.80
2023-04-14T01:50:27.154Z,4.80
2023-04-14T01:50:49.842Z,4.80
2023-04-14T01:51:12.758Z,4.80
2023-04-14T01:51:37.771Z,4.80
2023-04-14T01:52:00.665Z,4.80
2023-04-14T01:52:26.436Z,4.80
2023-04-14T01:52:54.273Z,4.80
2023-04-14T01:53:19.984Z,4.80
2023-04-14T01:53:45.737Z,4.80
2023-04-14T01:54:08.504Z,4.80
2023-04-14T01:54:31.934Z,4.80
2023-04-14T01:54:54.739Z,4.80
2023-04-14T01:55:18.886Z,4.80
2023-04-14T01:55:41.892Z,4.80
2023-04-14T01:56:05.234Z,4.80
2023-04-14T01:56:28.065Z,4.80
2023-04-14T01:56:53.388Z,4.80
2023-04-14T01:57:16.754Z,4.80
2023-04-14T01:57:41.959Z,4.80
2023-04-14T01:58:04.754Z,4.80
2023-04-14T01:58:30.467Z,4.80
2023-04-14T01:58:55.642Z,4.80
2023-04-14T01:59:18.434Z,4.80
2023-04-14T01:59:43.547Z,4.80
2023-04-14T02:00:08.257Z,4.80
2023-04-14T02:00:31.597Z,4.80
2023-04-14T02:00:54.311Z,4.80
2023-04-14T02:01:17.401Z,4.80
2023-04-14T02:01:40.985Z,4.80
2023-04-14T02:02:09.100Z,4.80
2023-04-14T02:02:32.173Z,4.80
2023-04-14T02:02:55.838Z,4.80
2023-04-14T02:03:18.933Z,4.80
2023-04-14T02:03:41.743Z,4.80
2023-04-14T02:04:04.561Z,4.80
2023-04-14T02:04:27.915Z,4.80
2023-04-14T02:04:53.244Z,4.80
2023-04-14T02:05:16.044Z,4.80
2023-04-14T02:05:39.302Z,4.80
2023-04-14T02:06:02.218Z,4.80
2023-04-14T02:06:25.007Z,4.80
2023-04-14T02:06:47.699Z,4.80
2023-04-14T02:07:11.175Z,4.80
2023-04-14T02:07:33.967Z,4.80
2023-04-14T02:07:56.759Z,4.80
2023-04-14T02:08:19.897Z,4.80
2023-04-14T02:08:42.696Z,4.90
2023-04-14T02:09:06.123Z,4.90
2023-04-14T02:09:29.454Z,4.90
2023-04-14T02:09:52.293Z,4.90
2023-04-14T02:10:16.105Z,4.90
2023-04-14T02:10:39.486Z,4.90
2023-04-14T02:11:02.256Z,4.90
2023-04-14T02:11:24.967Z,4.90
2023-04-14T02:11:50.887Z,4.90
2023-04-14T02:12:13.675Z,4.90
2023-04-14T02:12:37.396Z,4.90
2023-04-14T02:13:00.211Z,4.90
2023-04-14T02:13:24.114Z,4.90
2023-04-14T02:13:46.929Z,4.90
2023-04-14T02:14:09.616Z,4.90
2023-04-14T02:14:34.827Z,4.90
2023-04-14T02:14:57.846Z,4.90
2023-04-14T02:15:20.805Z,5.00
2023-04-14T02:15:43.557Z,5.00
2023-04-14T02:16:07.711Z,5.00
2023-04-14T02:16:30.570Z,4.90
2023-04-14T02:16:54.021Z,5.00
2023-04-14T02:17:18.300Z,5.00
2023-04-14T02:17:42.081Z,5.00
2023-04-14T02:18:06.168Z,5.00
2023-04-14T02:18:29.045Z,5.00
2023-04-14T02:18:51.748Z,5.00
2023-04-14T02:19:15.452Z,5.00
2023-04-14T02:19:38.241Z,5.00
2023-04-14T02:20:01.302Z,5.00
2023-04-14T02:20:24.204Z,5.00
2023-04-14T02:20:48.272Z,5.00
2023-04-14T02:21:13.696Z,5.00
2023-04-14T02:21:36.586Z,5.00
2023-04-14T02:21:59.521Z,5.00
2023-04-14T02:22:24.711Z,5.00
2023-04-14T02:22:47.575Z,5.10
2023-04-14T02:23:10.584Z,5.10
2023-04-14T02:23:33.316Z,5.10
2023-04-14T02:23:56.044Z,5.10
2023-04-14T02:24:21.249Z,5.10
2023-04-14T02:24:44.003Z,5.10
2023-04-14T02:25:07.572Z,5.10
2023-04-14T02:25:32.711Z,5.10
2023-04-14T02:26:00.559Z,5.50
2023-04-14T02:26:24.749Z,5.10
2023-04-14T02:27:04.227Z,5.10
2023-04-14T02:27:31.092Z,5.10
2023-04-14T02:27:55.329Z,5.20
2023-04-14T02:28:22.665Z,5.20
2023-04-14T02:28:49.388Z,5.20
2023-04-14T02:29:13.762Z,5.20
2023-04-14T02:29:36.823Z,5.20
2023-04-14T02:29:59.918Z,5.20
2023-04-14T02:30:24.813Z,5.20
2023-04-14T02:30:50.201Z,5.20
2023-04-14T02:31:13.161Z,5.20
2023-04-14T02:31:36.246Z,5.20
2023-04-14T02:32:01.053Z,5.20
2023-04-14T02:32:30.019Z,5.20
2023-04-14T02:33:03.764Z,5.20
2023-04-14T02:33:29.491Z,5.30
2023-04-14T02:33:55.118Z,5.30
2023-04-14T02:34:19.117Z,5.20
2023-04-14T02:34:45.368Z,5.30
2023-04-14T02:35:12.212Z,5.30
2023-04-14T02:35:40.058Z,5.30
2023-04-14T02:36:07.032Z,5.20
2023-04-14T02:36:32.610Z,5.20
2023-04-14T02:37:00.513Z,5.20
2023-04-14T02:37:25.903Z,5.30
2023-04-14T02:37:54.120Z,5.20
2023-04-14T02:38:21.609Z,5.30
2023-04-14T02:38:46.710Z,5.30
2023-04-14T02:39:12.441Z,5.30
2023-04-14T02:39:39.024Z,5.30
2023-04-14T02:40:03.298Z,5.30
2023-04-14T02:40:27.996Z,5.30
2023-04-14T02:40:50.818Z,5.30
2023-04-14T02:41:17.367Z,5.30
2023-04-14T02:41:40.703Z,5.30
2023-04-14T02:42:06.243Z,5.30
2023-04-14T02:42:29.355Z,5.30
2023-04-14T02:42:56.868Z,5.30
2023-04-14T02:43:20.660Z,5.40
2023-04-14T02:43:55.399Z,5.40
2023-04-14T02:44:19.741Z,5.40
2023-04-14T02:44:46.827Z,5.40
2023-04-14T02:45:14.078Z,5.30
2023-04-14T02:45:36.835Z,5.30
2023-04-14T02:45:59.599Z,5.30
2023-04-14T02:46:24.980Z,5.30
2023-04-14T02:46:51.916Z,5.40
2023-04-14T02:47:16.115Z,5.40
2023-04-14T02:47:43.281Z,5.30
2023-04-14T02:48:09.490Z,5.40
2023-04-14T02:48:33.184Z,5.30
2023-04-14T02:48:56.108Z,5.30
2023-04-14T02:49:18.835Z,5.40
2023-04-14T02:49:42.853Z,5.30
2023-04-14T02:50:10.450Z,5.40
2023-04-14T02:50:33.401Z,5.40
2023-04-14T02:50:56.200Z,5.40
2023-04-14T02:51:18.907Z,5.40
2023-04-14T02:51:41.657Z,5.40
2023-04-14T02:52:04.984Z,5.40
2023-04-14T02:52:29.545Z,5.40
2023-04-14T02:52:55.566Z,5.40
2023-04-14T02:53:21.473Z,5.50
2023-04-14T02:53:44.392Z,5.50
2023-04-14T02:54:09.397Z,5.50
2023-04-14T02:54:32.825Z,5.50
2023-04-14T02:54:57.787Z,5.50
2023-04-14T02:55:20.829Z,5.50
2023-04-14T02:55:43.757Z,5.50
2023-04-14T02:56:06.997Z,5.50
2023-04-14T02:56:32.230Z,5.50
2023-04-14T02:56:57.495Z,5.50
2023-04-14T02:57:20.176Z,5.50
2023-04-14T02:57:43.016Z,5.50
2023-04-14T02:58:06.296Z,5.50
2023-04-14T02:58:30.051Z,5.50
2023-04-14T02:58:52.874Z,5.50
2023-04-14T02:59:16.433Z,5.50
2023-04-14T02:59:39.275Z,5.50
2023-04-14T03:00:01.989Z,5.50
2023-04-14T03:00:24.867Z,5.50
2023-04-14T03:00:48.227Z,5.40
2023-04-14T03:01:11.302Z,5.50
2023-04-14T03:01:34.251Z,5.50
2023-04-14T03:01:59.928Z,5.50
2023-04-14T03:02:23.139Z,5.50
2023-04-14T03:02:47.826Z,5.50
2023-04-14T03:03:10.694Z,5.50
2023-04-14T03:03:37.630Z,5.50
2023-04-14T03:04:00.857Z,5.50
2023-04-14T03:04:23.624Z,5.50
2023-04-14T03:04:46.956Z,5.50
2023-04-14T03:05:09.985Z,5.50
2023-04-14T03:05:35.549Z,5.50
2023-04-14T03:05:58.378Z,5.50
2023-04-14T03:06:21.138Z,5.50
2023-04-14T03:06:43.937Z,5.50
2023-04-14T03:07:09.022Z,5.50
2023-04-14T03:07:31.709Z,5.50
2023-04-14T03:07:54.608Z,5.50
2023-04-14T03:08:17.352Z,5.50
2023-04-14T03:08:40.149Z,5.50
2023-04-14T03:09:03.388Z,5.50
2023-04-14T03:09:30.034Z,5.50
2023-04-14T03:09:52.851Z,5.50
2023-04-14T03:10:18.604Z,5.50
2023-04-14T03:10:41.725Z,5.50
2023-04-14T03:11:04.503Z,5.50
2023-04-14T03:11:27.268Z,5.50
2023-04-14T03:11:49.899Z,5.50
2023-04-14T03:12:13.420Z,5.50
2023-04-14T03:12:36.288Z,5.50
2023-04-14T03:12:59.134Z,5.50
2023-04-14T03:13:21.784Z,5.50
2023-04-14T03:13:44.840Z,5.50
2023-04-14T03:14:10.212Z,5.50
2023-04-14T03:14:32.966Z,5.50
2023-04-14T03:14:55.854Z,5.50
2023-04-14T03:15:21.541Z,5.50
2023-04-14T03:15:44.520Z,5.50
2023-04-14T03:16:08.488Z,5.50
2023-04-14T03:16:31.376Z,5.40
2023-04-14T03:16:54.628Z,5.50
2023-04-14T03:17:18.655Z,5.50
2023-04-14T03:17:41.665Z,5.50
2023-04-14T03:18:06.054Z,5.50
2023-04-14T03:18:28.894Z,5.50
2023-04-14T03:18:51.868Z,5.50
2023-04-14T03:19:14.594Z,5.50
2023-04-14T03:19:39.806Z,5.50
2023-04-14T03:20:04.905Z,5.50
2023-04-14T03:20:27.722Z,5.50
2023-04-14T03:20:52.027Z,5.60
2023-04-14T03:21:16.816Z,5.50
2023-04-14T03:21:39.763Z,5.50
2023-04-14T03:22:04.116Z,5.50
2023-04-14T03:22:28.394Z,5.50
2023-04-14T03:23:01.345Z,5.40
2023-04-14T03:23:24.651Z,5.40
2023-04-14T03:23:50.378Z,5.50
2023-04-14T03:24:14.598Z,5.50
2023-04-14T03:24:39.576Z,5.50
2023-04-14T03:25:02.361Z,5.50
2023-04-14T03:25:26.586Z,5.40
2023-04-14T03:25:49.342Z,5.50
2023-04-14T03:26:12.595Z,5.50
2023-04-14T03:26:38.348Z,5.40
2023-04-14T03:27:03.156Z,5.50
2023-04-14T03:27:31.735Z,5.50
2023-04-14T03:27:56.494Z,5.50
2023-04-14T03:28:23.628Z,5.50
2023-04-14T03:28:48.419Z,5.50
2023-04-14T03:29:13.366Z,5.50
2023-04-14T03:29:40.542Z,5.50
2023-04-14T03:30:07.807Z,5.50
2023-04-14T03:30:31.777Z,5.50
2023-04-14T03:30:54.615Z,5.50
2023-04-14T03:31:19.750Z,5.50
2023-04-14T03:31:44.633Z,5.50
2023-04-14T03:32:08.203Z,5.40
2023-04-14T03:32:35.814Z,5.50
2023-04-14T03:33:01.406Z,5.50
2023-04-14T03:33:27.682Z,5.50
2023-04-14T03:33:55.870Z,5.40
2023-04-14T03:34:18.749Z,5.40
2023-04-14T03:34:45.333Z,5.50
2023-04-14T03:35:09.361Z,5.40
2023-04-14T03:35:32.165Z,5.40
2023-04-14T03:35:57.372Z,5.40
2023-04-14T03:36:20.137Z,5.40
2023-04-14T03:36:43.058Z,5.40
2023-04-14T03:37:06.121Z,5.40
2023-04-14T03:37:29.178Z,5.40
2023-04-14T03:37:51.940Z,5.30
2023-04-14T03:38:15.562Z,5.40
2023-04-14T03:38:38.315Z,5.40
2023-04-14T03:39:02.033Z,5.40
2023-04-14T03:39:27.438Z,5.40
2023-04-14T03:39:53.607Z,5.40
2023-04-14T03:40:16.527Z,5.40
2023-04-14T03:40:41.511Z,5.40
2023-04-14T03:41:05.845Z,5.40
2023-04-14T03:41:28.720Z,5.40
2023-04-14T03:41:51.848Z,5.40
2023-04-14T03:42:16.857Z,5.30
2023-04-14T03:42:47.711Z,5.40
2023-04-14T03:43:12.553Z,5.40
2023-04-14T03:43:35.398Z,5.30
2023-04-14T03:44:00.592Z,5.30
2023-04-14T03:44:23.813Z,5.40
2023-04-14T03:44:51.724Z,5.30
2023-04-14T03:45:15.448Z,5.30
2023-04-14T03:45:40.273Z,5.30
2023-04-14T03:46:06.541Z,5.30
2023-04-14T03:46:30.958Z,5.30
2023-04-14T03:46:54.921Z,5.30
2023-04-14T03:47:19.549Z,5.30
2023-04-14T03:47:43.025Z,5.30
2023-04-14T03:48:06.341Z,5.20
2023-04-14T03:48:30.607Z,5.20
2023-04-14T03:48:53.346Z,5.30
2023-04-14T03:49:16.977Z,5.20
2023-04-14T03:49:42.255Z,5.20
2023-04-14T03:50:06.320Z,5.30
2023-04-14T03:50:31.851Z,5.30
2023-04-14T03:50:54.765Z,5.20
2023-04-14T03:51:17.489Z,5.20
2023-04-14T03:51:40.501Z,5.20
2023-04-14T03:52:05.851Z,5.20
2023-04-14T03:52:29.648Z,5.20
2023-04-14T03:52:53.634Z,5.30
2023-04-14T03:53:18.260Z,5.20
2023-04-14T03:53:42.021Z,5.20
2023-04-14T03:54:04.999Z,5.20
2023-04-14T03:54:30.664Z,5.20
2023-04-14T03:54:54.945Z,5.20
2023-04-14T03:55:19.257Z,5.20
2023-04-14T03:55:42.954Z,5.20
2023-04-14T03:56:06.709Z,5.20
2023-04-14T03:56:29.602Z,5.10
2023-04-14T03:56:54.431Z,5.20
2023-04-14T03:57:17.996Z,5.20
2023-04-14T03:57:42.940Z,5.20
2023-04-14T03:58:05.992Z,5.20
2023-04-14T03:58:28.949Z,5.20
2023-04-14T03:58:52.604Z,5.20
2023-04-14T03:59:16.771Z,4.90
2023-04-14T03:59:40.184Z,5.20
2023-04-14T04:00:05.367Z,5.20
2023-04-14T04:00:28.255Z,5.20
2023-04-14T04:00:51.061Z,5.20
2023-04-14T04:01:14.760Z,5.20
2023-04-14T04:01:37.613Z,5.20
2023-04-14T04:02:02.896Z,5.20
2023-04-14T04:02:26.207Z,5.20
2023-04-14T04:02:49.280Z,5.20
2023-04-14T04:03:15.680Z,5.10
2023-04-14T04:03:40.265Z,5.10
2023-04-14T04:04:05.578Z,5.20
2023-04-14T04:04:28.629Z,5.20
2023-04-14T04:04:51.455Z,5.20
2023-04-14T04:05:14.776Z,5.10
2023-04-14T04:05:40.554Z,5.20
2023-04-14T04:06:04.081Z,5.60
2023-04-14T04:06:27.703Z,5.20
2023-04-14T04:06:51.650Z,5.10
2023-04-14T04:07:14.444Z,5.10
2023-04-14T04:07:40.921Z,5.10
2023-04-14T04:08:03.843Z,5.10
2023-04-14T04:08:29.875Z,5.20
2023-04-14T04:08:52.979Z,5.20
2023-04-14T04:09:18.008Z,5.10
2023-04-14T04:09:42.940Z,5.20
2023-04-14T04:10:06.954Z,5.20
2023-04-14T04:10:32.913Z,5.20
2023-04-14T04:10:55.693Z,5.20
2023-04-14T04:11:20.848Z,5.10
2023-04-14T04:11:45.475Z,5.20
2023-04-14T04:12:08.624Z,5.20
2023-04-14T04:12:31.722Z,5.20
2023-04-14T04:12:54.583Z,5.20
2023-04-14T04:13:19.538Z,5.20
2023-04-14T04:13:42.256Z,5.20
2023-04-14T04:14:07.213Z,5.20
2023-04-14T04:14:30.588Z,5.90
2023-04-14T04:14:55.750Z,5.20
2023-04-14T04:15:18.674Z,5.20
2023-04-14T04:15:43.862Z,5.20
2023-04-14T04:16:07.787Z,5.20
2023-04-14T04:16:31.330Z,5.20
2023-04-14T04:16:57.533Z,5.20
2023-04-14T04:17:20.647Z,5.10
2023-04-14T04:17:43.510Z,5.20
2023-04-14T04:18:10.058Z,5.10
2023-04-14T04:18:35.314Z,5.20
2023-04-14T04:18:59.811Z,5.20
2023-04-14T04:19:23.525Z,5.20
2023-04-14T04:19:48.630Z,5.20
2023-04-14T04:20:14.242Z,5.20
2023-04-14T04:20:38.935Z,5.20
2023-04-14T04:21:01.718Z,5.20
2023-04-14T04:21:26.893Z,5.20
2023-04-14T04:21:52.171Z,5.20
2023-04-14T04:22:16.725Z,5.20
2023-04-14T04:22:41.467Z,5.20
2023-04-14T04:23:04.231Z,5.20
2023-04-14T04:23:29.304Z,5.20
2023-04-14T04:23:52.830Z,5.20
2023-04-14T04:24:15.873Z,5.20
2023-04-14T04:24:39.440Z,5.20
2023-04-14T04:25:02.286Z,5.20
2023-04-14T04:25:25.050Z,5.20
2023-04-14T04:25:48.003Z,5.20
2023-04-14T04:26:10.795Z,5.30
2023-04-14T04:26:36.614Z,5.20
2023-04-14T04:26:59.504Z,5.20
2023-04-14T04:27:28.063Z,5.20
2023-04-14T04:27:51.286Z,5.20
2023-04-14T04:28:14.251Z,5.20
2023-04-14T04:28:37.424Z,5.20
2023-04-14T04:29:00.900Z,5.20
2023-04-14T04:29:24.353Z,5.30
2023-04-14T04:29:47.550Z,5.30
2023-04-14T04:30:11.166Z,5.30
2023-04-14T04:30:33.987Z,5.30
2023-04-14T04:30:56.731Z,5.30
2023-04-14T04:31:19.923Z,5.30
2023-04-14T04:31:43.049Z,5.30
2023-04-14T04:32:06.208Z,5.30
2023-04-14T04:32:31.358Z,5.30
2023-04-14T04:32:54.334Z,5.30
2023-04-14T04:33:17.167Z,5.30
2023-04-14T04:33:40.205Z,5.40
2023-04-14T04:34:04.456Z,5.40
2023-04-14T04:34:29.632Z,5.40
2023-04-14T04:34:54.955Z,5.40
2023-04-14T04:35:17.621Z,5.40
2023-04-14T04:35:40.419Z,5.40
2023-04-14T04:36:04.678Z,5.40
2023-04-14T04:36:28.134Z,5.40
2023-04-14T04:36:51.594Z,5.40
2023-04-14T04:37:16.800Z,5.40
2023-04-14T04:37:39.774Z,5.40
2023-04-14T04:38:02.979Z,5.40
2023-04-14T04:38:26.171Z,5.40
2023-04-14T04:38:52.034Z,5.40
2023-04-14T04:39:14.835Z,5.40
2023-04-14T04:39:37.532Z,5.40
2023-04-14T04:40:00.318Z,5.40
2023-04-14T04:40:23.191Z,5.40
2023-04-14T04:40:46.252Z,5.40
2023-04-14T04:41:09.045Z,5.30
2023-04-14T04:41:31.873Z,5.40
2023-04-14T04:42:04.824Z,5.40
2023-04-14T04:42:27.613Z,5.30
2023-04-14T04:42:52.564Z,5.40
2023-04-14T04:43:20.977Z,5.40
2023-04-14T04:43:43.794Z,5.30
2023-04-14T04:44:09.800Z,5.40
2023-04-14T04:44:33.167Z,5.40
2023-04-14T04:44:56.580Z,5.40
2023-04-14T04:45:27.697Z,5.40
2023-04-14T04:46:00.056Z,5.40
2023-04-14T04:46:43.735Z,5.30
2023-04-14T04:47:06.536Z,5.40
2023-04-14T04:47:29.418Z,5.40
2023-04-14T04:47:52.208Z,5.40
2023-04-14T04:48:15.033Z,5.40
2023-04-14T04:48:37.777Z,5.30
2023-04-14T04:49:00.778Z,5.40
2023-04-14T04:49:25.126Z,5.40
2023-04-14T04:49:48.006Z,5.40
2023-04-14T04:50:11.051Z,5.30
2023-04-14T04:50:33.779Z,5.30
2023-04-14T04:50:59.070Z,5.40
2023-04-14T04:51:21.826Z,5.30
2023-04-14T04:51:47.065Z,5.30
2023-04-14T04:52:12.181Z,5.40
2023-04-14T04:52:34.910Z,5.30
2023-04-14T04:52:57.600Z,5.30
2023-04-14T04:53:20.827Z,5.30
2023-04-14T04:53:45.981Z,5.30
2023-04-14T04:54:08.781Z,5.30
2023-04-14T04:54:31.520Z,5.30
2023-04-14T04:54:54.622Z,5.30
2023-04-14T04:55:19.802Z,5.30
2023-04-14T04:55:42.660Z,5.30
2023-04-14T04:56:06.801Z,5.40
2023-04-14T04:56:29.615Z,5.30
2023-04-14T04:56:52.393Z,5.40
2023-04-14T04:57:15.145Z,5.40
2023-04-14T04:57:37.996Z,5.40
2023-04-14T04:58:01.150Z,5.40
2023-04-14T04:58:23.853Z,5.40
2023-04-14T04:58:47.173Z,5.40
2023-04-14T04:59:12.139Z,5.40
2023-04-14T04:59:36.603Z,5.40
2023-04-14T05:00:00.780Z,5.40
2023-04-14T05:00:26.294Z,5.40
2023-04-14T05:00:49.164Z,5.40
2023-04-14T05:01:11.924Z,5.40
2023-04-14T05:01:34.716Z,5.40
2023-04-14T05:01:57.791Z,5.40
2023-04-14T05:02:20.930Z,5.40
2023-04-14T05:02:43.850Z,5.40
2023-04-14T05:03:07.172Z,5.40
2023-04-14T05:03:30.241Z,5.40
2023-04-14T05:03:53.063Z,5.40
2023-04-14T05:04:15.971Z,5.40
2023-04-14T05:04:41.020Z,5.40
2023-04-14T05:05:04.247Z,5.40
2023-04-14T05:05:29.452Z,5.40
2023-04-14T05:05:52.364Z,5.40
2023-04-14T05:06:17.216Z,5.40
2023-04-14T05:06:39.986Z,5.40
2023-04-14T05:07:06.512Z,5.40
2023-04-14T05:07:29.334Z,5.40
2023-04-14T05:07:52.198Z,5.40
2023-04-14T05:08:15.340Z,5.50
2023-04-14T05:08:40.468Z,5.50
2023-04-14T05:09:03.450Z,5.50
2023-04-14T05:09:26.250Z,5.50
2023-04-14T05:09:49.194Z,5.50
2023-04-14T05:10:12.381Z,5.50
2023-04-14T05:10:36.882Z,5.50
2023-04-14T05:10:59.702Z,5.50
2023-04-14T05:11:22.495Z,5.50
2023-04-14T05:11:45.162Z,5.50
2023-04-14T05:12:07.934Z,5.50
2023-04-14T05:12:30.703Z,5.50
2023-04-14T05:12:53.511Z,5.50
2023-04-14T05:13:16.266Z,5.50
2023-04-14T05:13:39.107Z,5.50
2023-04-14T05:14:01.907Z,5.50
2023-04-14T05:14:26.353Z,5.50
2023-04-14T05:14:50.795Z,5.50
2023-04-14T05:15:13.698Z,5.50
2023-04-14T05:15:36.472Z,5.50
2023-04-14T05:16:04.814Z,5.50
2023-04-14T05:16:28.564Z,5.50
2023-04-14T05:16:51.779Z,5.50
2023-04-14T05:17:14.498Z,5.50
2023-04-14T05:17:37.345Z,5.50
2023-04-14T05:18:02.464Z,5.60
2023-04-14T05:18:25.817Z,5.50
2023-04-14T05:18:48.484Z,5.60
2023-04-14T05:19:13.364Z,5.60
2023-04-14T05:19:35.994Z,5.60
2023-04-14T05:20:02.202Z,5.60
2023-04-14T05:20:25.073Z,5.60
2023-04-14T05:20:47.937Z,5.60
2023-04-14T05:21:12.948Z,5.60
2023-04-14T05:21:35.761Z,5.60
2023-04-14T05:22:00.788Z,5.50
2023-04-14T05:22:25.684Z,5.50
2023-04-14T05:22:48.463Z,5.50
2023-04-14T05:23:13.548Z,5.60
2023-04-14T05:23:37.302Z,5.60
2023-04-14T05:24:00.866Z,5.60
2023-04-14T05:24:23.551Z,5.60